sensor_id;sensor_type;location;lat;lon;timestamp;P1;durP1;ratioP1;P2;durP2;ratioP2
42192;SDS011;52467;40.114;18.306;2023-05-13T00:00:43;16.13;;;3.93;;
42192;SDS011;52467;40.114;18.306;2023-05-13T00:03:10;22.83;;;3.80;;
42192;SDS011;52467;40.114;18.306;2023-05-13T00:05:37;15.57;;;3.67;;
42192;SDS011;52467;40.114;18.306;2023-05-13T00:08:06;22.83;;;3.83;;
42192;SDS011;52467;40.114;18.306;2023-05-13T00:10:33;22.25;;;3.60;;
42192;SDS011;52467;40.114;18.306;2023-05-13T00:13:01;17.67;;;3.47;;
42192;SDS011;52467;40.114;18.306;2023-05-13T00:15:28;18.83;;;4.15;;
42192;SDS011;52467;40.114;18.306;2023-05-13T00:17:56;22.02;;;4.07;;
42192;SDS011;52467;40.114;18.306;2023-05-13T00:20:23;14.47;;;3.97;;
42192;SDS011;52467;40.114;18.306;2023-05-13T00:22:50;17.67;;;3.42;;
42192;SDS011;52467;40.114;18.306;2023-05-13T00:25:18;21.95;;;4.22;;
42192;SDS011;52467;40.114;18.306;2023-05-13T00:27:45;22.63;;;4.13;;
42192;SDS011;52467;40.114;18.306;2023-05-13T00:30:12;16.85;;;4.05;;
42192;SDS011;52467;40.114;18.306;2023-05-13T00:32:39;18.20;;;3.90;;
42192;SDS011;52467;40.114;18.306;2023-05-13T00:35:07;18.10;;;4.00;;
42192;SDS011;52467;40.114;18.306;2023-05-13T00:37:35;22.13;;;4.32;;
42192;SDS011;52467;40.114;18.306;2023-05-13T00:40:03;22.45;;;4.32;;
42192;SDS011;52467;40.114;18.306;2023-05-13T00:42:31;15.98;;;4.07;;
42192;SDS011;52467;40.114;18.306;2023-05-13T00:44:58;11.93;;;3.97;;
42192;SDS011;52467;40.114;18.306;2023-05-13T00:47:25;18.45;;;3.90;;
42192;SDS011;52467;40.114;18.306;2023-05-13T00:49:52;18.38;;;4.70;;
42192;SDS011;52467;40.114;18.306;2023-05-13T00:52:19;21.80;;;3.97;;
42192;SDS011;52467;40.114;18.306;2023-05-13T00:54:47;22.05;;;4.65;;
42192;SDS011;52467;40.114;18.306;2023-05-13T00:57:14;12.38;;;3.88;;
42192;SDS011;52467;40.114;18.306;2023-05-13T00:59:41;26.83;;;4.07;;
42192;SDS011;52467;40.114;18.306;2023-05-13T01:02:13;17.00;;;3.90;;
42192;SDS011;52467;40.114;18.306;2023-05-13T01:07:52;22.40;;;4.25;;
42192;SDS011;52467;40.114;18.306;2023-05-13T01:13:16;20.98;;;4.55;;
42192;SDS011;52467;40.114;18.306;2023-05-13T01:15:48;13.98;;;3.83;;
42192;SDS011;52467;40.114;18.306;2023-05-13T01:18:19;22.38;;;4.20;;
42192;SDS011;52467;40.114;18.306;2023-05-13T01:20:52;28.70;;;4.27;;
42192;SDS011;52467;40.114;18.306;2023-05-13T01:23:20;25.58;;;4.25;;
42192;SDS011;52467;40.114;18.306;2023-05-13T01:25:47;17.80;;;3.67;;
42192;SDS011;52467;40.114;18.306;2023-05-13T01:28:16;21.58;;;4.28;;
42192;SDS011;52467;40.114;18.306;2023-05-13T01:30:47;12.23;;;3.88;;
42192;SDS011;52467;40.114;18.306;2023-05-13T01:33:15;16.07;;;3.77;;
42192;SDS011;52467;40.114;18.306;2023-05-13T01:35:44;13.93;;;2.90;;
42192;SDS011;52467;40.114;18.306;2023-05-13T01:38:13;10.48;;;2.90;;
42192;SDS011;52467;40.114;18.306;2023-05-13T01:40:46;11.00;;;2.80;;
42192;SDS011;52467;40.114;18.306;2023-05-13T01:43:14;9.85;;;2.97;;
42192;SDS011;52467;40.114;18.306;2023-05-13T01:45:41;5.22;;;2.50;;
42192;SDS011;52467;40.114;18.306;2023-05-13T01:48:10;10.73;;;2.67;;
42192;SDS011;52467;40.114;18.306;2023-05-13T01:50:41;12.30;;;4.63;;
42192;SDS011;52467;40.114;18.306;2023-05-13T01:53:09;10.70;;;3.03;;
42192;SDS011;52467;40.114;18.306;2023-05-13T01:55:37;10.32;;;3.42;;
42192;SDS011;52467;40.114;18.306;2023-05-13T01:58:04;13.32;;;3.47;;
42192;SDS011;52467;40.114;18.306;2023-05-13T02:00:32;8.45;;;2.58;;
42192;SDS011;52467;40.114;18.306;2023-05-13T02:02:59;15.45;;;3.40;;
42192;SDS011;52467;40.114;18.306;2023-05-13T02:05:26;9.05;;;2.80;;
42192;SDS011;52467;40.114;18.306;2023-05-13T02:07:56;10.00;;;2.70;;
42192;SDS011;52467;40.114;18.306;2023-05-13T02:10:23;11.70;;;3.83;;
42192;SDS011;52467;40.114;18.306;2023-05-13T02:12:51;10.02;;;3.28;;
42192;SDS011;52467;40.114;18.306;2023-05-13T02:15:18;10.73;;;4.25;;
42192;SDS011;52467;40.114;18.306;2023-05-13T02:17:46;6.30;;;2.85;;
42192;SDS011;52467;40.114;18.306;2023-05-13T02:20:13;7.85;;;3.08;;
42192;SDS011;52467;40.114;18.306;2023-05-13T02:22:41;5.40;;;2.92;;
42192;SDS011;52467;40.114;18.306;2023-05-13T02:25:08;11.20;;;3.15;;
42192;SDS011;52467;40.114;18.306;2023-05-13T02:27:36;10.07;;;2.75;;
42192;SDS011;52467;40.114;18.306;2023-05-13T02:30:03;10.02;;;3.05;;
42192;SDS011;52467;40.114;18.306;2023-05-13T02:32:32;9.52;;;2.65;;
42192;SDS011;52467;40.114;18.306;2023-05-13T02:34:59;5.45;;;2.33;;
42192;SDS011;52467;40.114;18.306;2023-05-13T02:37:26;11.02;;;2.25;;
42192;SDS011;52467;40.114;18.306;2023-05-13T02:40:00;10.25;;;2.58;;
42192;SDS011;52467;40.114;18.306;2023-05-13T02:42:27;8.75;;;2.85;;
42192;SDS011;52467;40.114;18.306;2023-05-13T02:44:55;12.75;;;2.72;;
42192;SDS011;52467;40.114;18.306;2023-05-13T02:47:24;5.55;;;2.67;;
42192;SDS011;52467;40.114;18.306;2023-05-13T02:49:53;11.07;;;2.60;;
42192;SDS011;52467;40.114;18.306;2023-05-13T02:52:22;6.60;;;2.53;;
42192;SDS011;52467;40.114;18.306;2023-05-13T02:54:49;6.93;;;1.90;;
42192;SDS011;52467;40.114;18.306;2023-05-13T02:57:17;7.55;;;1.98;;
42192;SDS011;52467;40.114;18.306;2023-05-13T02:59:44;11.05;;;2.03;;
42192;SDS011;52467;40.114;18.306;2023-05-13T03:02:12;9.52;;;2.72;;
42192;SDS011;52467;40.114;18.306;2023-05-13T03:04:39;6.18;;;2.30;;
42192;SDS011;52467;40.114;18.306;2023-05-13T03:07:06;11.25;;;2.35;;
42192;SDS011;52467;40.114;18.306;2023-05-13T03:09:34;6.88;;;1.83;;
42192;SDS011;52467;40.114;18.306;2023-05-13T03:12:06;6.07;;;2.50;;
42192;SDS011;52467;40.114;18.306;2023-05-13T03:14:33;6.13;;;2.50;;
42192;SDS011;52467;40.114;18.306;2023-05-13T03:17:03;9.45;;;2.50;;
42192;SDS011;52467;40.114;18.306;2023-05-13T03:19:32;6.53;;;2.22;;
42192;SDS011;52467;40.114;18.306;2023-05-13T03:22:03;6.53;;;1.90;;
42192;SDS011;52467;40.114;18.306;2023-05-13T03:24:31;5.63;;;1.83;;
42192;SDS011;52467;40.114;18.306;2023-05-13T03:27:00;8.82;;;2.20;;
42192;SDS011;52467;40.114;18.306;2023-05-13T03:29:28;5.20;;;2.10;;
42192;SDS011;52467;40.114;18.306;2023-05-13T03:31:56;6.22;;;2.35;;
42192;SDS011;52467;40.114;18.306;2023-05-13T03:34:24;5.13;;;2.10;;
42192;SDS011;52467;40.114;18.306;2023-05-13T03:36:51;11.17;;;1.90;;
42192;SDS011;52467;40.114;18.306;2023-05-13T03:39:20;10.07;;;1.83;;
42192;SDS011;52467;40.114;18.306;2023-05-13T03:41:47;11.13;;;2.08;;
42192;SDS011;52467;40.114;18.306;2023-05-13T03:44:15;7.80;;;2.00;;
42192;SDS011;52467;40.114;18.306;2023-05-13T03:46:42;8.55;;;2.38;;
42192;SDS011;52467;40.114;18.306;2023-05-13T03:49:09;6.57;;;1.65;;
42192;SDS011;52467;40.114;18.306;2023-05-13T03:51:37;6.28;;;2.22;;
42192;SDS011;52467;40.114;18.306;2023-05-13T03:54:05;9.55;;;2.92;;
42192;SDS011;52467;40.114;18.306;2023-05-13T03:56:33;4.40;;;1.93;;
42192;SDS011;52467;40.114;18.306;2023-05-13T03:59:00;8.32;;;2.60;;
42192;SDS011;52467;40.114;18.306;2023-05-13T04:01:28;14.73;;;2.28;;
42192;SDS011;52467;40.114;18.306;2023-05-13T04:03:55;5.90;;;2.45;;
42192;SDS011;52467;40.114;18.306;2023-05-13T04:06:22;7.57;;;2.93;;
42192;SDS011;52467;40.114;18.306;2023-05-13T04:08:50;8.77;;;2.35;;
42192;SDS011;52467;40.114;18.306;2023-05-13T04:11:17;10.40;;;3.88;;
42192;SDS011;52467;40.114;18.306;2023-05-13T04:13:46;8.70;;;2.47;;
42192;SDS011;52467;40.114;18.306;2023-05-13T04:16:14;6.03;;;2.42;;
42192;SDS011;52467;40.114;18.306;2023-05-13T04:18:42;4.15;;;2.05;;
42192;SDS011;52467;40.114;18.306;2023-05-13T04:21:10;8.73;;;3.00;;
42192;SDS011;52467;40.114;18.306;2023-05-13T04:23:37;9.88;;;2.70;;
42192;SDS011;52467;40.114;18.306;2023-05-13T04:26:04;16.02;;;3.20;;
42192;SDS011;52467;40.114;18.306;2023-05-13T04:28:32;3.47;;;1.98;;
42192;SDS011;52467;40.114;18.306;2023-05-13T04:31:00;5.35;;;2.20;;
42192;SDS011;52467;40.114;18.306;2023-05-13T04:33:30;10.85;;;2.85;;
42192;SDS011;52467;40.114;18.306;2023-05-13T04:35:57;8.02;;;2.17;;
42192;SDS011;52467;40.114;18.306;2023-05-13T04:38:25;6.80;;;2.47;;
42192;SDS011;52467;40.114;18.306;2023-05-13T04:40:52;7.18;;;2.33;;
42192;SDS011;52467;40.114;18.306;2023-05-13T04:43:27;6.57;;;1.93;;
42192;SDS011;52467;40.114;18.306;2023-05-13T04:45:57;7.22;;;2.15;;
42192;SDS011;52467;40.114;18.306;2023-05-13T04:48:24;6.05;;;1.75;;
42192;SDS011;52467;40.114;18.306;2023-05-13T04:50:53;7.53;;;1.88;;
42192;SDS011;52467;40.114;18.306;2023-05-13T04:53:21;10.98;;;2.35;;
42192;SDS011;52467;40.114;18.306;2023-05-13T04:55:49;6.90;;;2.23;;
42192;SDS011;52467;40.114;18.306;2023-05-13T04:58:17;4.40;;;1.60;;
42192;SDS011;52467;40.114;18.306;2023-05-13T05:00:45;4.05;;;1.90;;
42192;SDS011;52467;40.114;18.306;2023-05-13T05:03:12;8.73;;;2.13;;
42192;SDS011;52467;40.114;18.306;2023-05-13T05:05:40;5.97;;;2.75;;
42192;SDS011;52467;40.114;18.306;2023-05-13T05:08:09;11.10;;;2.10;;
42192;SDS011;52467;40.114;18.306;2023-05-13T05:10:36;8.25;;;1.83;;
42192;SDS011;52467;40.114;18.306;2023-05-13T05:13:07;17.20;;;3.20;;
42192;SDS011;52467;40.114;18.306;2023-05-13T05:15:36;6.28;;;2.17;;
42192;SDS011;52467;40.114;18.306;2023-05-13T05:18:04;8.35;;;2.03;;
42192;SDS011;52467;40.114;18.306;2023-05-13T05:20:35;5.43;;;1.93;;
42192;SDS011;52467;40.114;18.306;2023-05-13T05:23:05;5.53;;;2.17;;
42192;SDS011;52467;40.114;18.306;2023-05-13T05:25:34;10.15;;;2.50;;
42192;SDS011;52467;40.114;18.306;2023-05-13T05:28:03;7.20;;;2.03;;
42192;SDS011;52467;40.114;18.306;2023-05-13T05:30:31;9.75;;;2.42;;
42192;SDS011;52467;40.114;18.306;2023-05-13T05:33:09;8.33;;;2.57;;
42192;SDS011;52467;40.114;18.306;2023-05-13T05:35:41;9.15;;;2.90;;
42192;SDS011;52467;40.114;18.306;2023-05-13T05:38:12;9.43;;;2.35;;
42192;SDS011;52467;40.114;18.306;2023-05-13T05:40:43;9.88;;;2.60;;
42192;SDS011;52467;40.114;18.306;2023-05-13T05:43:11;6.40;;;2.10;;
42192;SDS011;52467;40.114;18.306;2023-05-13T05:45:42;6.38;;;2.55;;
42192;SDS011;52467;40.114;18.306;2023-05-13T05:48:13;8.85;;;2.00;;
42192;SDS011;52467;40.114;18.306;2023-05-13T05:50:41;9.73;;;2.70;;
42192;SDS011;52467;40.114;18.306;2023-05-13T05:53:12;7.93;;;2.03;;
42192;SDS011;52467;40.114;18.306;2023-05-13T05:55:39;10.77;;;1.90;;
42192;SDS011;52467;40.114;18.306;2023-05-13T05:58:08;6.55;;;2.13;;
42192;SDS011;52467;40.114;18.306;2023-05-13T06:00:37;10.15;;;2.70;;
42192;SDS011;52467;40.114;18.306;2023-05-13T06:03:04;6.68;;;2.55;;
42192;SDS011;52467;40.114;18.306;2023-05-13T06:05:32;10.93;;;2.37;;
42192;SDS011;52467;40.114;18.306;2023-05-13T06:07:59;10.18;;;2.22;;
42192;SDS011;52467;40.114;18.306;2023-05-13T06:10:28;12.30;;;3.05;;
42192;SDS011;52467;40.114;18.306;2023-05-13T06:12:56;4.70;;;1.90;;
42192;SDS011;52467;40.114;18.306;2023-05-13T06:15:23;9.50;;;2.40;;
42192;SDS011;52467;40.114;18.306;2023-05-13T06:17:51;6.20;;;3.03;;
42192;SDS011;52467;40.114;18.306;2023-05-13T06:20:18;6.18;;;2.50;;
42192;SDS011;52467;40.114;18.306;2023-05-13T06:22:46;11.27;;;2.63;;
42192;SDS011;52467;40.114;18.306;2023-05-13T06:25:13;9.07;;;2.63;;
42192;SDS011;52467;40.114;18.306;2023-05-13T06:27:41;7.82;;;2.58;;
42192;SDS011;52467;40.114;18.306;2023-05-13T06:30:10;9.60;;;2.63;;
42192;SDS011;52467;40.114;18.306;2023-05-13T06:32:40;8.38;;;2.08;;
42192;SDS011;52467;40.114;18.306;2023-05-13T06:35:13;12.77;;;2.38;;
42192;SDS011;52467;40.114;18.306;2023-05-13T06:37:40;7.33;;;2.00;;
42192;SDS011;52467;40.114;18.306;2023-05-13T06:40:08;12.27;;;2.60;;
42192;SDS011;52467;40.114;18.306;2023-05-13T06:42:39;8.90;;;2.08;;
42192;SDS011;52467;40.114;18.306;2023-05-13T06:45:19;8.02;;;2.20;;
42192;SDS011;52467;40.114;18.306;2023-05-13T06:47:49;6.13;;;1.80;;
42192;SDS011;52467;40.114;18.306;2023-05-13T06:50:17;7.13;;;2.55;;
42192;SDS011;52467;40.114;18.306;2023-05-13T06:52:45;7.27;;;2.50;;
42192;SDS011;52467;40.114;18.306;2023-05-13T06:55:13;8.27;;;1.95;;
42192;SDS011;52467;40.114;18.306;2023-05-13T06:57:42;7.10;;;2.22;;
42192;SDS011;52467;40.114;18.306;2023-05-13T07:00:15;7.50;;;2.30;;
42192;SDS011;52467;40.114;18.306;2023-05-13T07:02:43;9.77;;;2.78;;
42192;SDS011;52467;40.114;18.306;2023-05-13T07:05:11;6.27;;;2.23;;
42192;SDS011;52467;40.114;18.306;2023-05-13T07:07:38;8.38;;;2.40;;
42192;SDS011;52467;40.114;18.306;2023-05-13T07:10:05;4.70;;;1.75;;
42192;SDS011;52467;40.114;18.306;2023-05-13T07:12:33;6.18;;;2.03;;
42192;SDS011;52467;40.114;18.306;2023-05-13T07:15:00;10.10;;;2.00;;
42192;SDS011;52467;40.114;18.306;2023-05-13T07:17:28;14.02;;;2.50;;
42192;SDS011;52467;40.114;18.306;2023-05-13T07:19:56;7.57;;;2.25;;
42192;SDS011;52467;40.114;18.306;2023-05-13T07:22:25;14.03;;;2.80;;
42192;SDS011;52467;40.114;18.306;2023-05-13T07:24:53;14.00;;;3.20;;
42192;SDS011;52467;40.114;18.306;2023-05-13T07:27:20;10.15;;;2.63;;
42192;SDS011;52467;40.114;18.306;2023-05-13T07:29:48;11.70;;;3.47;;
42192;SDS011;52467;40.114;18.306;2023-05-13T07:32:15;11.77;;;3.20;;
42192;SDS011;52467;40.114;18.306;2023-05-13T07:34:43;12.15;;;3.10;;
42192;SDS011;52467;40.114;18.306;2023-05-13T07:37:10;14.73;;;3.00;;
42192;SDS011;52467;40.114;18.306;2023-05-13T07:39:37;10.80;;;3.28;;
42192;SDS011;52467;40.114;18.306;2023-05-13T07:42:05;9.23;;;2.75;;
42192;SDS011;52467;40.114;18.306;2023-05-13T07:44:33;12.00;;;3.13;;
42192;SDS011;52467;40.114;18.306;2023-05-13T07:47:00;17.57;;;3.27;;
42192;SDS011;52467;40.114;18.306;2023-05-13T07:49:27;11.90;;;2.67;;
42192;SDS011;52467;40.114;18.306;2023-05-13T07:51:55;9.95;;;2.88;;
42192;SDS011;52467;40.114;18.306;2023-05-13T07:54:22;13.32;;;3.35;;
42192;SDS011;52467;40.114;18.306;2023-05-13T07:56:49;10.00;;;2.75;;
42192;SDS011;52467;40.114;18.306;2023-05-13T07:59:17;10.13;;;2.80;;
42192;SDS011;52467;40.114;18.306;2023-05-13T08:01:46;14.20;;;3.50;;
42192;SDS011;52467;40.114;18.306;2023-05-13T08:04:13;9.32;;;3.17;;
42192;SDS011;52467;40.114;18.306;2023-05-13T08:06:43;8.27;;;2.42;;
42192;SDS011;52467;40.114;18.306;2023-05-13T08:09:11;12.25;;;2.47;;
42192;SDS011;52467;40.114;18.306;2023-05-13T08:11:39;13.75;;;3.03;;
42192;SDS011;52467;40.114;18.306;2023-05-13T08:14:07;7.53;;;2.22;;
42192;SDS011;52467;40.114;18.306;2023-05-13T08:16:34;9.90;;;2.95;;
42192;SDS011;52467;40.114;18.306;2023-05-13T08:19:02;7.10;;;2.45;;
42192;SDS011;52467;40.114;18.306;2023-05-13T08:21:30;10.97;;;2.40;;
42192;SDS011;52467;40.114;18.306;2023-05-13T08:23:58;7.28;;;2.40;;
42192;SDS011;52467;40.114;18.306;2023-05-13T08:26:25;9.75;;;2.72;;
42192;SDS011;52467;40.114;18.306;2023-05-13T08:28:55;10.32;;;2.28;;
42192;SDS011;52467;40.114;18.306;2023-05-13T08:31:23;6.50;;;2.42;;
42192;SDS011;52467;40.114;18.306;2023-05-13T08:33:51;13.82;;;2.22;;
42192;SDS011;52467;40.114;18.306;2023-05-13T08:36:20;8.68;;;2.13;;
42192;SDS011;52467;40.114;18.306;2023-05-13T08:38:50;8.30;;;2.03;;
42192;SDS011;52467;40.114;18.306;2023-05-13T08:41:18;10.05;;;2.78;;
42192;SDS011;52467;40.114;18.306;2023-05-13T08:43:46;9.32;;;2.08;;
42192;SDS011;52467;40.114;18.306;2023-05-13T08:46:14;7.72;;;2.35;;
42192;SDS011;52467;40.114;18.306;2023-05-13T08:48:42;7.47;;;2.00;;
42192;SDS011;52467;40.114;18.306;2023-05-13T08:51:10;11.63;;;2.38;;
42192;SDS011;52467;40.114;18.306;2023-05-13T08:53:38;7.93;;;1.93;;
42192;SDS011;52467;40.114;18.306;2023-05-13T08:56:06;8.83;;;2.43;;
42192;SDS011;52467;40.114;18.306;2023-05-13T08:58:34;8.17;;;2.17;;
42192;SDS011;52467;40.114;18.306;2023-05-13T09:01:02;11.23;;;2.80;;
42192;SDS011;52467;40.114;18.306;2023-05-13T09:03:30;9.57;;;2.40;;
42192;SDS011;52467;40.114;18.306;2023-05-13T09:06:01;10.35;;;2.58;;
42192;SDS011;52467;40.114;18.306;2023-05-13T09:08:28;8.48;;;2.00;;
42192;SDS011;52467;40.114;18.306;2023-05-13T09:10:58;13.05;;;2.90;;
42192;SDS011;52467;40.114;18.306;2023-05-13T09:13:27;11.20;;;2.47;;
42192;SDS011;52467;40.114;18.306;2023-05-13T09:15:55;11.75;;;2.67;;
42192;SDS011;52467;40.114;18.306;2023-05-13T09:18:27;8.38;;;2.53;;
42192;SDS011;52467;40.114;18.306;2023-05-13T09:20:56;9.40;;;2.60;;
42192;SDS011;52467;40.114;18.306;2023-05-13T09:23:23;10.20;;;2.83;;
42192;SDS011;52467;40.114;18.306;2023-05-13T09:25:51;7.63;;;1.92;;
42192;SDS011;52467;40.114;18.306;2023-05-13T09:28:18;9.63;;;2.20;;
42192;SDS011;52467;40.114;18.306;2023-05-13T09:30:47;7.28;;;1.55;;
42192;SDS011;52467;40.114;18.306;2023-05-13T09:33:20;8.17;;;1.97;;
42192;SDS011;52467;40.114;18.306;2023-05-13T09:35:51;7.93;;;1.80;;
42192;SDS011;52467;40.114;18.306;2023-05-13T09:38:25;9.55;;;2.00;;
42192;SDS011;52467;40.114;18.306;2023-05-13T09:40:55;9.52;;;1.65;;
42192;SDS011;52467;40.114;18.306;2023-05-13T09:43:24;9.43;;;1.67;;
42192;SDS011;52467;40.114;18.306;2023-05-13T09:45:54;5.95;;;1.60;;
42192;SDS011;52467;40.114;18.306;2023-05-13T09:48:24;7.55;;;1.42;;
42192;SDS011;52467;40.114;18.306;2023-05-13T09:50:53;6.80;;;1.42;;
42192;SDS011;52467;40.114;18.306;2023-05-13T09:53:21;7.47;;;1.30;;
42192;SDS011;52467;40.114;18.306;2023-05-13T09:55:50;6.72;;;1.50;;
42192;SDS011;52467;40.114;18.306;2023-05-13T09:58:19;10.10;;;1.63;;
42192;SDS011;52467;40.114;18.306;2023-05-13T10:00:49;9.50;;;1.50;;
42192;SDS011;52467;40.114;18.306;2023-05-13T10:03:20;8.85;;;1.70;;
42192;SDS011;52467;40.114;18.306;2023-05-13T10:05:47;9.93;;;1.85;;
42192;SDS011;52467;40.114;18.306;2023-05-13T10:08:18;10.07;;;1.63;;
42192;SDS011;52467;40.114;18.306;2023-05-13T10:10:45;9.30;;;2.35;;
42192;SDS011;52467;40.114;18.306;2023-05-13T10:13:14;6.97;;;1.60;;
42192;SDS011;52467;40.114;18.306;2023-05-13T10:15:49;7.70;;;1.60;;
42192;SDS011;52467;40.114;18.306;2023-05-13T10:18:18;7.40;;;2.00;;
42192;SDS011;52467;40.114;18.306;2023-05-13T10:20:48;6.28;;;1.70;;
42192;SDS011;52467;40.114;18.306;2023-05-13T10:23:20;6.90;;;1.60;;
42192;SDS011;52467;40.114;18.306;2023-05-13T10:25:49;13.25;;;2.03;;
42192;SDS011;52467;40.114;18.306;2023-05-13T10:28:17;7.00;;;1.73;;
42192;SDS011;52467;40.114;18.306;2023-05-13T10:30:45;8.63;;;1.60;;
42192;SDS011;52467;40.114;18.306;2023-05-13T10:33:18;6.57;;;2.08;;
42192;SDS011;52467;40.114;18.306;2023-05-13T10:35:52;9.90;;;1.95;;
42192;SDS011;52467;40.114;18.306;2023-05-13T10:44:22;7.07;;;1.58;;
42192;SDS011;52467;40.114;18.306;2023-05-13T10:46:50;8.27;;;1.73;;
42192;SDS011;52467;40.114;18.306;2023-05-13T10:49:17;8.45;;;1.42;;
42192;SDS011;52467;40.114;18.306;2023-05-13T10:51:48;8.77;;;1.63;;
42192;SDS011;52467;40.114;18.306;2023-05-13T10:54:19;6.90;;;1.55;;
42192;SDS011;52467;40.114;18.306;2023-05-13T10:56:57;9.13;;;1.55;;
42192;SDS011;52467;40.114;18.306;2023-05-13T10:59:25;7.15;;;1.40;;
42192;SDS011;52467;40.114;18.306;2023-05-13T11:01:56;10.55;;;1.63;;
42192;SDS011;52467;40.114;18.306;2023-05-13T11:04:23;6.40;;;1.70;;
42192;SDS011;52467;40.114;18.306;2023-05-13T11:06:51;7.25;;;1.48;;
42192;SDS011;52467;40.114;18.306;2023-05-13T11:11:55;9.55;;;1.45;;
42192;SDS011;52467;40.114;18.306;2023-05-13T11:14:24;8.85;;;1.50;;
42192;SDS011;52467;40.114;18.306;2023-05-13T11:16:54;8.57;;;2.05;;
42192;SDS011;52467;40.114;18.306;2023-05-13T11:19:35;7.07;;;1.50;;
42192;SDS011;52467;40.114;18.306;2023-05-13T11:22:04;10.40;;;2.20;;
42192;SDS011;52467;40.114;18.306;2023-05-13T11:24:38;12.57;;;1.70;;
42192;SDS011;52467;40.114;18.306;2023-05-13T11:27:16;6.97;;;1.75;;
42192;SDS011;52467;40.114;18.306;2023-05-13T11:29:50;8.25;;;1.42;;
42192;SDS011;52467;40.114;18.306;2023-05-13T11:35:25;6.43;;;1.50;;
42192;SDS011;52467;40.114;18.306;2023-05-13T11:37:55;8.32;;;1.95;;
42192;SDS011;52467;40.114;18.306;2023-05-13T11:40:31;6.72;;;1.70;;
42192;SDS011;52467;40.114;18.306;2023-05-13T11:43:00;6.10;;;1.80;;
42192;SDS011;52467;40.114;18.306;2023-05-13T11:45:28;15.80;;;3.08;;
42192;SDS011;52467;40.114;18.306;2023-05-13T11:47:56;5.80;;;1.70;;
42192;SDS011;52467;40.114;18.306;2023-05-13T11:50:29;8.13;;;2.15;;
42192;SDS011;52467;40.114;18.306;2023-05-13T11:52:58;10.60;;;2.40;;
42192;SDS011;52467;40.114;18.306;2023-05-13T11:55:28;11.25;;;1.77;;
42192;SDS011;52467;40.114;18.306;2023-05-13T11:57:57;4.63;;;1.55;;
42192;SDS011;52467;40.114;18.306;2023-05-13T12:02:53;12.18;;;1.90;;
42192;SDS011;52467;40.114;18.306;2023-05-13T12:05:21;7.68;;;1.67;;
42192;SDS011;52467;40.114;18.306;2023-05-13T12:07:50;10.52;;;1.92;;
42192;SDS011;52467;40.114;18.306;2023-05-13T12:10:17;6.22;;;1.70;;
42192;SDS011;52467;40.114;18.306;2023-05-13T12:12:45;6.50;;;1.65;;
42192;SDS011;52467;40.114;18.306;2023-05-13T12:15:13;7.50;;;1.70;;
42192;SDS011;52467;40.114;18.306;2023-05-13T12:17:43;10.05;;;2.15;;
42192;SDS011;52467;40.114;18.306;2023-05-13T12:20:15;5.35;;;1.90;;
42192;SDS011;52467;40.114;18.306;2023-05-13T12:28:23;13.43;;;2.20;;
42192;SDS011;52467;40.114;18.306;2023-05-13T12:30:55;12.80;;;1.60;;
42192;SDS011;52467;40.114;18.306;2023-05-13T12:33:41;6.88;;;2.20;;
42192;SDS011;52467;40.114;18.306;2023-05-13T12:39:19;9.27;;;1.70;;
42192;SDS011;52467;40.114;18.306;2023-05-13T12:41:51;7.13;;;1.15;;
42192;SDS011;52467;40.114;18.306;2023-05-13T12:44:19;6.70;;;1.15;;
42192;SDS011;52467;40.114;18.306;2023-05-13T12:46:51;6.03;;;1.00;;
42192;SDS011;52467;40.114;18.306;2023-05-13T12:49:19;6.13;;;1.50;;
42192;SDS011;52467;40.114;18.306;2023-05-13T12:51:48;5.03;;;1.15;;
42192;SDS011;52467;40.114;18.306;2023-05-13T12:54:17;7.33;;;1.87;;
42192;SDS011;52467;40.114;18.306;2023-05-13T12:56:45;5.10;;;1.17;;
42192;SDS011;52467;40.114;18.306;2023-05-13T12:59:14;7.97;;;1.58;;
42192;SDS011;52467;40.114;18.306;2023-05-13T13:01:42;9.70;;;1.70;;
42192;SDS011;52467;40.114;18.306;2023-05-13T13:04:10;7.97;;;1.42;;
42192;SDS011;52467;40.114;18.306;2023-05-13T13:06:38;9.87;;;1.57;;
42192;SDS011;52467;40.114;18.306;2023-05-13T13:09:05;10.50;;;1.65;;
42192;SDS011;52467;40.114;18.306;2023-05-13T13:11:33;8.25;;;1.40;;
42192;SDS011;52467;40.114;18.306;2023-05-13T13:14:01;9.63;;;1.60;;
42192;SDS011;52467;40.114;18.306;2023-05-13T13:16:29;7.68;;;1.92;;
42192;SDS011;52467;40.114;18.306;2023-05-13T13:18:57;7.05;;;1.30;;
42192;SDS011;52467;40.114;18.306;2023-05-13T13:21:27;7.63;;;1.60;;
42192;SDS011;52467;40.114;18.306;2023-05-13T13:23:54;10.60;;;1.83;;
42192;SDS011;52467;40.114;18.306;2023-05-13T13:26:22;8.55;;;1.88;;
42192;SDS011;52467;40.114;18.306;2023-05-13T13:28:52;10.18;;;1.52;;
42192;SDS011;52467;40.114;18.306;2023-05-13T13:31:20;4.88;;;1.05;;
42192;SDS011;52467;40.114;18.306;2023-05-13T13:33:48;4.77;;;1.30;;
42192;SDS011;52467;40.114;18.306;2023-05-13T13:36:15;6.88;;;0.90;;
42192;SDS011;52467;40.114;18.306;2023-05-13T13:38:43;6.90;;;1.20;;
42192;SDS011;52467;40.114;18.306;2023-05-13T13:41:10;5.50;;;1.13;;
42192;SDS011;52467;40.114;18.306;2023-05-13T13:43:38;3.22;;;0.90;;
42192;SDS011;52467;40.114;18.306;2023-05-13T13:46:05;5.20;;;1.20;;
42192;SDS011;52467;40.114;18.306;2023-05-13T13:48:33;4.85;;;1.20;;
42192;SDS011;52467;40.114;18.306;2023-05-13T13:51:01;7.88;;;1.27;;
42192;SDS011;52467;40.114;18.306;2023-05-13T13:53:28;4.28;;;0.90;;
42192;SDS011;52467;40.114;18.306;2023-05-13T13:55:56;5.30;;;1.57;;
42192;SDS011;52467;40.114;18.306;2023-05-13T13:58:23;11.00;;;1.08;;
42192;SDS011;52467;40.114;18.306;2023-05-13T14:00:51;5.22;;;0.93;;
42192;SDS011;52467;40.114;18.306;2023-05-13T14:03:18;7.90;;;1.60;;
42192;SDS011;52467;40.114;18.306;2023-05-13T14:05:46;6.82;;;1.38;;
42192;SDS011;52467;40.114;18.306;2023-05-13T14:08:17;11.73;;;1.48;;
42192;SDS011;52467;40.114;18.306;2023-05-13T14:10:44;6.03;;;1.52;;
42192;SDS011;52467;40.114;18.306;2023-05-13T14:13:12;6.03;;;1.10;;
42192;SDS011;52467;40.114;18.306;2023-05-13T14:15:39;10.60;;;1.40;;
42192;SDS011;52467;40.114;18.306;2023-05-13T14:18:07;5.63;;;1.38;;
42192;SDS011;52467;40.114;18.306;2023-05-13T14:20:35;8.03;;;1.20;;
42192;SDS011;52467;40.114;18.306;2023-05-13T14:23:04;7.97;;;1.08;;
42192;SDS011;52467;40.114;18.306;2023-05-13T14:25:31;8.82;;;1.25;;
42192;SDS011;52467;40.114;18.306;2023-05-13T14:27:59;7.90;;;1.23;;
42192;SDS011;52467;40.114;18.306;2023-05-13T14:30:26;5.93;;;1.30;;
42192;SDS011;52467;40.114;18.306;2023-05-13T14:32:56;5.85;;;1.05;;
42192;SDS011;52467;40.114;18.306;2023-05-13T14:35:26;7.18;;;1.13;;
42192;SDS011;52467;40.114;18.306;2023-05-13T14:37:54;7.57;;;1.20;;
42192;SDS011;52467;40.114;18.306;2023-05-13T14:40:21;9.75;;;1.58;;
42192;SDS011;52467;40.114;18.306;2023-05-13T14:42:49;6.85;;;1.10;;
42192;SDS011;52467;40.114;18.306;2023-05-13T14:45:16;5.68;;;1.50;;
42192;SDS011;52467;40.114;18.306;2023-05-13T14:47:44;6.28;;;1.10;;
42192;SDS011;52467;40.114;18.306;2023-05-13T14:50:11;10.40;;;1.30;;
42192;SDS011;52467;40.114;18.306;2023-05-13T14:52:40;10.57;;;1.17;;
42192;SDS011;52467;40.114;18.306;2023-05-13T14:55:08;9.77;;;1.40;;
42192;SDS011;52467;40.114;18.306;2023-05-13T14:57:36;8.60;;;1.65;;
42192;SDS011;52467;40.114;18.306;2023-05-13T15:00:04;9.40;;;1.53;;
42192;SDS011;52467;40.114;18.306;2023-05-13T15:02:32;9.82;;;1.70;;
42192;SDS011;52467;40.114;18.306;2023-05-13T15:05:00;8.13;;;1.55;;
42192;SDS011;52467;40.114;18.306;2023-05-13T15:07:27;14.45;;;2.67;;